createdAt,value
2023-02-16T00:01:54.890Z,100.00
2023-02-16T00:04:31.164Z,100.00
2023-02-16T00:07:00.834Z,100.00
2023-02-16T00:09:33.706Z,100.00
2023-02-16T00:12:20.090Z,100.00
2023-02-16T00:14:48.690Z,100.00
2023-02-16T00:17:17.312Z,100.00
2023-02-16T00:19:45.705Z,100.00
2023-02-16T00:22:14.504Z,100.00
2023-02-16T00:24:48.140Z,100.00
2023-02-16T00:27:18.842Z,100.00
2023-02-16T00:29:47.555Z,100.00
2023-02-16T00:32:16.241Z,100.00
2023-02-16T00:34:45.252Z,100.00
2023-02-16T00:37:16.390Z,100.00
2023-02-16T00:39:46.849Z,100.00
2023-02-16T00:42:20.501Z,100.00
2023-02-16T00:44:51.181Z,100.00
2023-02-16T00:47:21.919Z,100.00
2023-02-16T00:49:52.003Z,100.00
2023-02-16T00:52:33.338Z,100.00
2023-02-16T00:55:04.983Z,100.00
2023-02-16T00:57:38.092Z,100.00
2023-02-16T01:00:14.189Z,100.00
2023-02-16T01:02:42.953Z,100.00
2023-02-16T01:05:11.640Z,100.00
2023-02-16T01:07:57.472Z,100.00
2023-02-16T01:10:45.355Z,100.00
2023-02-16T01:13:14.322Z,100.00
2023-02-16T01:15:44.060Z,100.00
2023-02-16T01:19:15.039Z,100.00
2023-02-16T01:21:43.895Z,100.00
2023-02-16T01:24:12.575Z,100.00
2023-02-16T01:26:46.436Z,100.00
2023-02-16T01:29:16.435Z,100.00
2023-02-16T01:31:45.522Z,100.00
2023-02-16T01:34:17.032Z,100.00
2023-02-16T01:36:46.499Z,100.00
2023-02-16T01:39:17.010Z,100.00
2023-02-16T01:41:58.980Z,100.00
2023-02-16T01:44:31.117Z,100.00
2023-02-16T01:47:05.560Z,100.00
2023-02-16T01:49:34.398Z,100.00
2023-02-16T01:52:07.310Z,100.00
2023-02-16T01:54:46.262Z,100.00
2023-02-16T01:57:24.909Z,100.00
2023-02-16T02:03:15.997Z,100.00
2023-02-16T02:05:43.939Z,100.00
2023-02-16T02:08:18.127Z,100.00
2023-02-16T02:10:53.899Z,100.00
2023-02-16T02:13:28.661Z,100.00
2023-02-16T02:15:59.231Z,100.00
2023-02-16T02:18:28.066Z,100.00
2023-02-16T02:21:31.751Z,100.00
2023-02-16T02:24:33.748Z,100.00
2023-02-16T02:27:17.610Z,100.00
2023-02-16T02:30:10.092Z,100.00
2023-02-16T02:32:51.949Z,100.00
2023-02-16T02:35:31.671Z,100.00
2023-02-16T02:38:08.209Z,100.00
2023-02-16T02:40:46.002Z,100.00
2023-02-16T02:43:20.725Z,100.00
2023-02-16T02:45:51.590Z,100.00
2023-02-16T02:48:29.425Z,100.00
2023-02-16T02:51:29.288Z,100.00
2023-02-16T02:54:15.439Z,100.00
2023-02-16T02:57:04.927Z,100.00
2023-02-16T02:59:53.184Z,100.00
2023-02-16T03:02:24.047Z,100.00
2023-02-16T03:04:54.144Z,100.00
2023-02-16T03:07:45.568Z,100.00
2023-02-16T03:10:32.637Z,100.00
2023-02-16T03:13:02.793Z,100.00
2023-02-16T03:15:33.175Z,100.00
2023-02-16T03:18:21.826Z,100.00
2023-02-16T03:21:08.032Z,100.00
2023-02-16T03:23:55.106Z,100.00
2023-02-16T03:26:41.368Z,100.00
2023-02-16T03:29:22.245Z,100.00
2023-02-16T03:32:02.724Z,100.00
2023-02-16T03:34:32.114Z,100.00
2023-02-16T03:37:02.290Z,100.00
2023-02-16T03:39:31.484Z,100.00
2023-02-16T03:42:00.491Z,100.00
2023-02-16T03:44:29.120Z,100.00
2023-02-16T03:47:01.639Z,100.00
2023-02-16T03:49:30.585Z,100.00
2023-02-16T03:51:59.087Z,100.00
2023-02-16T03:54:28.123Z,100.00
2023-02-16T03:56:56.839Z,100.00
2023-02-16T03:59:27.953Z,100.00
2023-02-16T04:01:56.677Z,100.00
2023-02-16T04:04:27.475Z,100.00
2023-02-16T04:06:56.213Z,100.00
2023-02-16T04:09:24.927Z,100.00
2023-02-16T04:12:11.021Z,100.00
2023-02-16T04:14:40.214Z,100.00
2023-02-16T04:17:10.029Z,100.00
2023-02-16T04:19:40.272Z,100.00
2023-02-16T04:22:09.083Z,100.00
2023-02-16T04:24:38.168Z,100.00
2023-02-16T04:27:06.536Z,100.00
2023-02-16T04:29:35.321Z,100.00
2023-02-16T04:32:03.768Z,100.00
2023-02-16T04:34:32.499Z,100.00
2023-02-16T04:40:34.821Z,100.00
2023-02-16T04:43:04.665Z,100.00
2023-02-16T04:45:33.204Z,100.00
2023-02-16T04:48:04.009Z,100.00
2023-02-16T04:50:32.661Z,100.00
2023-02-16T04:53:02.706Z,100.00
2023-02-16T04:55:31.324Z,100.00
2023-02-16T04:58:00.170Z,100.00
2023-02-16T05:00:28.791Z,100.00
2023-02-16T05:03:01.304Z,100.00
2023-02-16T05:05:31.817Z,100.00
2023-02-16T05:08:01.804Z,100.00
2023-02-16T05:10:33.458Z,100.00
2023-02-16T05:13:19.824Z,100.00
2023-02-16T05:15:48.679Z,100.00
2023-02-16T05:18:17.401Z,100.00
2023-02-16T05:21:03.776Z,100.00
2023-02-16T05:23:34.119Z,100.00
2023-02-16T05:26:02.497Z,100.00
2023-02-16T05:28:31.400Z,100.00
2023-02-16T05:31:00.275Z,100.00
2023-02-16T05:33:29.051Z,100.00
2023-02-16T05:35:57.614Z,100.00
2023-02-16T05:38:26.925Z,100.00
2023-02-16T05:40:57.216Z,100.00
2023-02-16T05:43:26.081Z,100.00
2023-02-16T05:45:54.996Z,100.00
2023-02-16T05:48:23.593Z,100.00
2023-02-16T05:50:54.807Z,100.00
2023-02-16T05:53:23.834Z,100.00
2023-02-16T05:56:02.188Z,100.00
2023-02-16T05:58:30.906Z,100.00
2023-02-16T06:00:59.866Z,100.00
2023-02-16T06:03:30.040Z,100.00
2023-02-16T06:06:01.965Z,100.00
2023-02-16T06:08:31.064Z,100.00
2023-02-16T06:11:01.303Z,100.00
2023-02-16T06:13:29.597Z,100.00
2023-02-16T06:15:58.720Z,100.00
2023-02-16T06:18:27.805Z,100.00
2023-02-16T06:21:01.053Z,100.00
2023-02-16T06:23:30.076Z,100.00
2023-02-16T06:25:58.801Z,100.00
2023-02-16T06:28:31.694Z,100.00
2023-02-16T06:31:01.348Z,100.00
2023-02-16T06:33:33.066Z,100.00
2023-02-16T06:36:01.800Z,100.00
2023-02-16T06:38:32.337Z,100.00
2023-02-16T06:41:01.001Z,100.00
2023-02-16T06:43:31.155Z,100.00
2023-02-16T06:46:00.041Z,100.00
2023-02-16T06:48:28.618Z,100.00
2023-02-16T06:50:57.120Z,100.00
2023-02-16T06:53:25.750Z,100.00
2023-02-16T06:55:54.349Z,100.00
2023-02-16T06:58:22.778Z,100.00
2023-02-16T07:00:53.492Z,100.00
2023-02-16T07:03:22.272Z,100.00
2023-02-16T07:05:51.852Z,100.00
2023-02-16T07:08:20.783Z,100.00
2023-02-16T07:10:50.595Z,100.00
2023-02-16T07:13:19.329Z,100.00
2023-02-16T07:15:48.336Z,100.00
2023-02-16T07:18:23.525Z,100.00
2023-02-16T07:20:52.037Z,100.00
2023-02-16T07:23:21.442Z,100.00
2023-02-16T07:25:50.500Z,100.00
2023-02-16T07:28:20.006Z,100.00
2023-02-16T07:30:49.108Z,100.00
2023-02-16T07:33:54.839Z,100.00
2023-02-16T07:36:30.669Z,100.00
2023-02-16T07:38:59.090Z,100.00
2023-02-16T07:41:29.604Z,100.00
2023-02-16T07:43:58.457Z,100.00
2023-02-16T07:46:27.092Z,100.00
2023-02-16T07:48:56.937Z,100.00
2023-02-16T07:51:29.506Z,100.00
2023-02-16T07:54:01.114Z,100.00
2023-02-16T07:56:33.024Z,100.00
2023-02-16T07:59:05.155Z,100.00
2023-02-16T08:01:34.471Z,100.00
2023-02-16T08:04:04.754Z,100.00
2023-02-16T08:06:34.091Z,100.00
2023-02-16T08:09:02.875Z,100.00
2023-02-16T08:11:31.705Z,100.00
2023-02-16T08:14:00.973Z,100.00
2023-02-16T08:16:30.916Z,100.00
2023-02-16T08:19:04.780Z,100.00
2023-02-16T08:21:34.912Z,100.00
2023-02-16T08:24:06.393Z,100.00
2023-02-16T08:26:37.042Z,100.00
2023-02-16T08:29:06.518Z,100.00
2023-02-16T08:31:36.940Z,100.00
2023-02-16T08:34:07.870Z,100.00
2023-02-16T08:36:41.032Z,100.00
2023-02-16T08:39:13.547Z,100.00
2023-02-16T08:41:45.840Z,99.87
2023-02-16T08:44:16.004Z,98.50
2023-02-16T08:46:45.961Z,98.95
2023-02-16T08:49:17.184Z,97.28
2023-02-16T08:51:49.389Z,95.98
2023-02-16T08:54:19.155Z,96.10
2023-02-16T08:56:48.261Z,94.22
2023-02-16T08:59:18.233Z,93.53
2023-02-16T09:01:46.835Z,91.43
2023-02-16T09:04:17.699Z,91.27
2023-02-16T09:06:51.615Z,88.34
2023-02-16T09:09:20.421Z,81.92
2023-02-16T09:11:49.231Z,81.88
2023-02-16T09:14:19.307Z,75.39
2023-02-16T09:16:48.517Z,70.23
2023-02-16T09:19:23.386Z,64.22
2023-02-16T09:21:52.316Z,59.65
2023-02-16T09:24:22.256Z,56.81
2023-02-16T09:26:52.340Z,55.33
2023-02-16T09:29:21.422Z,49.38
2023-02-16T09:31:50.395Z,46.99
2023-02-16T09:34:35.124Z,50.20
2023-02-16T09:37:03.801Z,46.18
2023-02-16T09:39:32.877Z,43.61
2023-02-16T09:42:15.510Z,40.42
2023-02-16T09:44:52.385Z,40.54
2023-02-16T09:47:24.348Z,37.86
2023-02-16T09:50:38.383Z,36.10
2023-02-16T09:53:14.810Z,37.69
2023-02-16T09:55:50.242Z,35.51
2023-02-16T09:58:21.581Z,35.92
2023-02-16T10:00:53.989Z,35.11
2023-02-16T10:03:37.358Z,34.86
2023-02-16T10:06:27.104Z,35.71
2023-02-16T10:08:57.574Z,34.88
2023-02-16T10:11:49.150Z,33.26
2023-02-16T10:14:30.927Z,31.95
2023-02-16T10:17:07.960Z,31.46
2023-02-16T10:19:39.976Z,33.55
2023-02-16T10:22:17.313Z,34.13
2023-02-16T10:24:59.213Z,33.43
2023-02-16T10:27:39.301Z,32.54
2023-02-16T10:30:16.875Z,32.21
2023-02-16T10:32:56.252Z,31.15
2023-02-16T10:35:31.816Z,30.87
2023-02-16T10:39:02.283Z,32.37
2023-02-16T10:41:34.828Z,33.03
2023-02-16T10:44:11.445Z,33.28
2023-02-16T10:46:48.611Z,32.20
2023-02-16T10:49:17.687Z,33.98
2023-02-16T10:51:50.580Z,33.81
2023-02-16T10:54:37.593Z,32.82
2023-02-16T10:57:09.290Z,33.09
2023-02-16T10:59:47.215Z,35.87
2023-02-16T11:02:20.630Z,36.69
2023-02-16T11:04:52.719Z,36.64
2023-02-16T11:07:22.632Z,35.39
2023-02-16T11:09:53.253Z,34.01
2023-02-16T11:12:32.801Z,32.67
2023-02-16T11:15:06.710Z,31.98
2023-02-16T11:17:50.371Z,31.96
2023-02-16T11:20:29.073Z,33.68
2023-02-16T11:23:15.483Z,32.98
2023-02-16T11:25:44.286Z,32.08
2023-02-16T11:28:27.852Z,31.46
2023-02-16T11:31:17.241Z,31.62
2023-02-16T11:33:57.772Z,32.28
2023-02-16T11:36:31.004Z,29.48
2023-02-16T11:39:05.601Z,30.49
2023-02-16T11:41:35.260Z,29.24
2023-02-16T11:44:05.763Z,33.38
2023-02-16T11:46:43.807Z,33.43
2023-02-16T11:49:31.834Z,35.94
2023-02-16T11:52:01.302Z,37.83
2023-02-16T11:54:31.961Z,38.68
2023-02-16T11:57:05.820Z,39.09
2023-02-16T11:59:38.955Z,40.03
2023-02-16T12:02:37.933Z,40.23
2023-02-16T12:05:17.193Z,36.83
2023-02-16T12:08:10.931Z,36.19
2023-02-16T12:10:42.726Z,34.57
2023-02-16T12:13:17.609Z,35.75
2023-02-16T12:15:51.953Z,39.01
2023-02-16T12:18:29.293Z,39.33
2023-02-16T12:21:01.448Z,39.48
2023-02-16T12:23:41.080Z,39.08
2023-02-16T12:26:34.493Z,40.43
2023-02-16T12:29:12.544Z,39.99
2023-02-16T12:32:07.471Z,40.07
2023-02-16T12:34:46.581Z,40.46
2023-02-16T12:37:22.698Z,40.51
2023-02-16T12:39:59.047Z,40.22
2023-02-16T12:42:46.892Z,40.28
2023-02-16T12:45:19.089Z,41.99
2023-02-16T12:47:52.545Z,40.64
2023-02-16T12:50:23.530Z,40.89
2023-02-16T12:52:55.802Z,40.60
2023-02-16T12:55:29.243Z,39.45
2023-02-16T12:58:05.852Z,39.60
2023-02-16T13:00:41.595Z,38.64
2023-02-16T13:03:22.821Z,40.65
2023-02-16T13:05:59.036Z,39.35
2023-02-16T13:08:32.463Z,37.13
2023-02-16T13:11:06.696Z,36.76
2023-02-16T13:13:37.101Z,36.24
2023-02-16T13:16:17.466Z,34.63
2023-02-16T13:19:04.072Z,33.27
2023-02-16T13:22:07.613Z,32.38
2023-02-16T13:24:46.117Z,30.07
2023-02-16T13:27:24.004Z,31.24
2023-02-16T13:30:07.485Z,31.89
2023-02-16T13:32:56.347Z,31.89
2023-02-16T13:36:04.309Z,29.92
2023-02-16T13:38:51.415Z,30.79
2023-02-16T13:41:36.719Z,32.54
2023-02-16T13:44:09.639Z,33.42
2023-02-16T13:46:41.622Z,33.44
2023-02-16T13:49:31.246Z,31.91
2023-02-16T13:52:01.416Z,31.85
2023-02-16T13:54:32.494Z,31.41
2023-02-16T13:57:04.731Z,31.51
2023-02-16T14:00:01.558Z,30.78
2023-02-16T14:03:04.362Z,31.96
2023-02-16T14:05:40.730Z,33.34
2023-02-16T14:08:19.392Z,35.10
2023-02-16T14:11:12.249Z,33.90
2023-02-16T14:13:49.670Z,36.48
2023-02-16T14:16:35.241Z,34.77
2023-02-16T14:19:18.400Z,35.11
2023-02-16T14:21:51.625Z,34.51
2023-02-16T14:24:33.538Z,33.04
2023-02-16T14:27:04.272Z,32.72
2023-02-16T14:29:34.239Z,33.21
2023-02-16T14:32:07.578Z,32.24
2023-02-16T14:34:41.847Z,30.63
2023-02-16T14:37:32.452Z,30.46
2023-02-16T14:40:23.154Z,28.52
2023-02-16T14:42:57.840Z,27.52
2023-02-16T14:45:52.207Z,28.24
2023-02-16T14:48:31.619Z,29.45
2023-02-16T14:51:21.295Z,29.24
2023-02-16T14:54:12.967Z,28.08
2023-02-16T14:56:47.303Z,27.49
2023-02-16T14:59:30.989Z,28.35
2023-02-16T15:02:02.331Z,28.22
2023-02-16T15:04:32.519Z,28.09
2023-02-16T15:07:03.439Z,30.20
2023-02-16T15:09:33.417Z,31.50
2023-02-16T15:12:24.260Z,34.00
2023-02-16T15:14:54.864Z,35.40
2023-02-16T15:17:32.003Z,36.47
2023-02-16T15:20:06.688Z,36.28
2023-02-16T15:22:39.112Z,35.94
2023-02-16T15:25:22.689Z,35.52
2023-02-16T15:28:04.558Z,34.62
2023-02-16T15:30:34.473Z,34.54
2023-02-16T15:33:05.155Z,35.14
2023-02-16T15:35:42.452Z,35.15
2023-02-16T15:38:22.321Z,34.28
2023-02-16T15:40:56.396Z,36.79
2023-02-16T15:43:32.886Z,40.83
2023-02-16T15:46:03.543Z,44.45
2023-02-16T15:48:34.251Z,46.04
2023-02-16T15:51:09.610Z,47.63
2023-02-16T15:53:44.131Z,49.91
2023-02-16T15:56:29.739Z,52.50
2023-02-16T15:59:01.797Z,54.09
2023-02-16T16:01:34.318Z,54.78
2023-02-16T16:04:06.051Z,58.56
2023-02-16T16:06:40.102Z,60.03
2023-02-16T16:09:15.632Z,60.54
2023-02-16T16:11:46.712Z,61.54
2023-02-16T16:14:17.465Z,62.72
2023-02-16T16:16:48.094Z,63.52
2023-02-16T16:19:18.979Z,63.59
2023-02-16T16:21:58.271Z,65.12
2023-02-16T16:24:38.414Z,65.33
2023-02-16T16:27:09.517Z,66.29
2023-02-16T16:29:42.557Z,67.40
2023-02-16T16:32:20.692Z,67.74
2023-02-16T16:34:50.310Z,69.80
2023-02-16T16:37:27.191Z,70.67
2023-02-16T16:40:07.159Z,71.03
2023-02-16T16:42:39.360Z,72.79
2023-02-16T16:45:36.204Z,73.57
2023-02-16T16:48:10.492Z,73.89
2023-02-16T16:50:40.058Z,73.60
2023-02-16T16:53:40.137Z,73.74
2023-02-16T16:56:14.068Z,74.99
2023-02-16T16:58:42.970Z,75.53
2023-02-16T17:01:14.834Z,75.36
2023-02-16T17:03:44.140Z,75.76
2023-02-16T17:06:14.372Z,76.63
2023-02-16T17:08:45.416Z,77.48
2023-02-16T17:11:25.500Z,77.83
2023-02-16T17:14:02.316Z,78.77
2023-02-16T17:16:35.521Z,77.65
2023-02-16T17:19:05.993Z,78.59
2023-02-16T17:21:36.995Z,79.14
2023-02-16T17:24:07.475Z,79.08
2023-02-16T17:26:38.638Z,79.34
2023-02-16T17:29:08.516Z,79.37
2023-02-16T17:31:39.424Z,80.58
2023-02-16T17:34:09.277Z,80.54
2023-02-16T17:36:39.050Z,79.28
2023-02-16T17:39:08.523Z,79.47
2023-02-16T17:41:37.210Z,79.06
2023-02-16T17:44:05.943Z,78.75
2023-02-16T17:46:42.483Z,79.58
2023-02-16T17:49:12.311Z,80.86
2023-02-16T17:51:41.537Z,81.79
2023-02-16T17:54:13.302Z,83.47
2023-02-16T17:56:41.974Z,84.98
2023-02-16T17:59:15.461Z,85.78
2023-02-16T18:01:46.463Z,87.04
2023-02-16T18:04:15.373Z,88.12
2023-02-16T18:06:45.049Z,88.53
2023-02-16T18:09:20.706Z,89.36
2023-02-16T18:11:49.542Z,90.29
2023-02-16T18:14:20.412Z,90.84
2023-02-16T18:16:57.807Z,91.27
2023-02-16T18:19:35.707Z,92.35
2023-02-16T18:22:10.664Z,91.40
2023-02-16T18:24:39.428Z,92.02
2023-02-16T18:27:08.239Z,92.72
2023-02-16T18:29:37.336Z,93.41
2023-02-16T18:32:07.455Z,93.07
2023-02-16T18:34:37.677Z,93.52
2023-02-16T18:37:09.010Z,93.63
2023-02-16T18:39:40.960Z,94.03
2023-02-16T18:42:12.476Z,94.16
2023-02-16T18:44:41.586Z,94.56
2023-02-16T18:47:11.840Z,94.35
2023-02-16T18:49:40.657Z,95.18
2023-02-16T18:52:09.964Z,94.49
2023-02-16T18:54:38.939Z,95.29
2023-02-16T18:57:07.477Z,96.11
2023-02-16T19:00:03.747Z,95.81
2023-02-16T19:02:33.819Z,96.53
2023-02-16T19:05:03.132Z,96.29
2023-02-16T19:07:31.546Z,95.76
2023-02-16T19:10:00.286Z,96.12
2023-02-16T19:12:28.864Z,96.56
2023-02-16T19:14:57.631Z,96.83
2023-02-16T19:17:26.685Z,96.71
2023-02-16T19:19:57.095Z,96.70
2023-02-16T19:22:26.544Z,96.05
2023-02-16T19:24:55.488Z,96.39
2023-02-16T19:27:24.336Z,96.42
2023-02-16T19:29:53.274Z,97.74
2023-02-16T19:32:21.875Z,98.78
2023-02-16T19:34:51.064Z,98.18
2023-02-16T19:37:21.129Z,98.89
2023-02-16T19:39:49.728Z,98.74
2023-02-16T19:42:18.811Z,98.36
2023-02-16T19:44:47.550Z,98.25
2023-02-16T19:47:19.128Z,97.49
2023-02-16T19:49:48.099Z,97.88
2023-02-16T19:52:18.016Z,98.22
2023-02-16T19:55:01.228Z,98.12
2023-02-16T19:57:30.222Z,98.41
2023-02-16T19:59:59.037Z,98.71
2023-02-16T20:02:27.578Z,99.06
2023-02-16T20:05:02.491Z,99.01
2023-02-16T20:07:31.295Z,98.70
2023-02-16T20:10:01.668Z,98.83
2023-02-16T20:12:30.338Z,98.70
2023-02-16T20:14:59.292Z,99.35
2023-02-16T20:17:28.083Z,98.93
2023-02-16T20:20:01.441Z,99.02
2023-02-16T20:22:30.127Z,99.14
2023-02-16T20:24:58.776Z,99.30
2023-02-16T20:27:35.765Z,99.28
2023-02-16T20:30:06.296Z,99.44
2023-02-16T20:32:35.726Z,99.03
2023-02-16T20:35:08.677Z,99.28
2023-02-16T20:37:37.334Z,98.83
2023-02-16T20:40:06.954Z,99.11
2023-02-16T20:42:36.830Z,99.60
2023-02-16T20:45:06.445Z,99.45
2023-02-16T20:47:40.578Z,99.33
2023-02-16T20:50:09.986Z,99.34
2023-02-16T20:52:40.630Z,99.43
2023-02-16T20:55:15.080Z,99.53
2023-02-16T20:57:45.592Z,100.00
2023-02-16T21:00:22.812Z,100.00
2023-02-16T21:02:51.955Z,100.00
2023-02-16T21:05:21.850Z,100.00
2023-02-16T21:08:00.447Z,100.00
2023-02-16T21:10:31.407Z,100.00
2023-02-16T21:13:01.473Z,100.00
2023-02-16T21:15:30.220Z,100.00
2023-02-16T21:17:58.811Z,100.00
2023-02-16T21:20:27.703Z,100.00
2023-02-16T21:22:58.408Z,100.00
2023-02-16T21:25:27.295Z,100.00
2023-02-16T21:27:55.929Z,100.00
2023-02-16T21:30:26.444Z,100.00
2023-02-16T21:32:55.377Z,100.00
2023-02-16T21:35:26.859Z,100.00
2023-02-16T21:38:01.197Z,100.00
2023-02-16T21:40:47.991Z,100.00
2023-02-16T21:43:17.455Z,100.00
2023-02-16T21:45:48.585Z,100.00
2023-02-16T21:48:34.979Z,100.00
2023-02-16T21:51:04.051Z,100.00
2023-02-16T21:53:35.949Z,100.00
2023-02-16T21:56:18.131Z,100.00
2023-02-16T21:58:47.035Z,100.00
2023-02-16T22:01:21.752Z,100.00
2023-02-16T22:03:56.274Z,100.00
2023-02-16T22:06:26.070Z,100.00
2023-02-16T22:08:55.249Z,100.00
2023-02-16T22:11:23.812Z,100.00
2023-02-16T22:14:04.469Z,100.00
2023-02-16T22:16:35.873Z,100.00
2023-02-16T22:19:08.872Z,100.00
2023-02-16T22:21:38.274Z,100.00
2023-02-16T22:24:07.424Z,100.00
2023-02-16T22:26:37.066Z,100.00
2023-02-16T22:29:06.636Z,100.00
2023-02-16T22:31:38.099Z,100.00
2023-02-16T22:34:11.106Z,100.00
2023-02-16T22:36:40.461Z,100.00
2023-02-16T22:39:09.698Z,100.00
2023-02-16T22:42:04.455Z,100.00
2023-02-16T22:44:33.518Z,100.00
2023-02-16T22:47:03.680Z,100.00
2023-02-16T22:49:32.487Z,100.00
2023-02-16T22:54:45.454Z,100.00
2023-02-16T22:57:16.387Z,100.00
2023-02-16T22:59:44.837Z,100.00
2023-02-16T23:02:14.753Z,100.00
2023-02-16T23:04:43.471Z,100.00
2023-02-16T23:07:12.091Z,100.00
2023-02-16T23:09:40.536Z,100.00
2023-02-16T23:12:08.909Z,100.00
2023-02-16T23:14:39.061Z,100.00
2023-02-16T23:17:07.841Z,100.00
2023-02-16T23:19:38.303Z,100.00
2023-02-16T23:22:07.443Z,100.00
2023-02-16T23:24:36.386Z,100.00
2023-02-16T23:27:05.057Z,100.00
2023-02-16T23:29:33.690Z,100.00
2023-02-16T23:32:02.332Z,100.00
2023-02-16T23:34:31.064Z,100.00
2023-02-16T23:37:01.314Z,100.00
2023-02-16T23:39:30.114Z,100.00
2023-02-16T23:41:59.077Z,100.00
2023-02-16T23:44:27.896Z,100.00
2023-02-16T23:47:00.749Z,100.00
2023-02-16T23:49:29.729Z,100.00
2023-02-16T23:51:58.813Z,100.00
2023-02-16T23:54:28.906Z,100.00
2023-02-16T23:56:59.365Z,100.00
2023-02-16T23:59:27.915Z,100.00
